Dawn, TX (79025)

10:33 PM CST on February 28, 2015 (GMT -0600)
Hereford Municipal | Change Station
CLOSE
Current Station
Airport
Location: Hereford,
Elevation: 3786 ft
Nearby Weather Stations
Active Advisory: Freezing Fog Advisory Active Notice: Local Storm Report

Elev 3786 ft 34.86 °N, 102.33 °W | Updated 18 minutes ago

Overcast
Overcast
24 °F
Feels Like 15 °F
N
8
Wind Variable Wind from South

Today
High -- | Low -- °F
--% Chance of Precip.
Yesterday
High -- | Low -- °F
Precip. -- in
7:19 AM 6:43 PM
Waxing Gibbous, 82% visible
Pressure 30.13 in
Visibility 0.5 miles
Clouds Overcast 300 ft
Windchill 15 °F
Dew Point 24 °F
Humidity 97%
Rainfall 0.00 in
Snow Depth Not available.
UV 0 out of 12
Pollen .80 out of 12
Air Quality Not available.
Flu Activity Not available.
METAR KHRX 010415Z AUTO 17007KT 1/2SM FZFG OVC003 M04/M05 A3013 RMK AO2 T10431047

More Conditions Fewer Conditions

Pressure 30.13 in
Visibility 0.5 miles
Clouds Overcast 300 ft
Windchill 15 °F
Dew Point 24 °F
Humidity 97%
Rainfall 0.00 in
Snow Depth Not available.
UV 0 out of 12
Pollen .80 out of 12
Air Quality Not available.
Flu Activity Not available.
METAR KHRX 010415Z AUTO 17007KT 1/2SM FZFG OVC003 M04/M05 A3013 RMK AO2 T10431047

More Conditions Fewer Conditions

10-Day Weather Forecast

Almanac

Astronomy

Feb. 28, 2015 Rise Set
Actual Time
Civil Twilight
Nautical Twilight
Astronomical Twilight
Moon
Length of Visible Light
Length of Day
Tomorrow will be .
, % of the Moon is Illuminated

Today's Extremes

State Highs State Lows

Community

WunderPhotos

Upload Photos

1,801,318 photos uploaded!

WunderBlogs® & News

Nearby

Air Quality

  Air Quality AQ Index Pollutant
Not available.

Snow Depth

Station Depth Elevation

Earthquake Activity

City Distance Mag. Time & Date
Minimum magnitude displayed is 2.5.

Coastal Water Temperatures

Place Temperature

Nearby Weather Stations

Freezing Fog Advisory
Statement as of 10:01 PM CST on February 28, 2015

... Freezing fog advisory in effect until 10 am CST Sunday...

The National Weather Service in Amarillo has issued a freezing
fog advisory... which is in effect until 10 am CST Sunday.

* Event... dense freezing fog with visibilities one half of a mile or
less will be found across the western Oklahoma Panhandle and the
southwest half of the Texas Panhandle

* timing... through 10 am.

* Impacts... dense freezing fog may deposit a light coating of ice on
roads and sidewalks. Visibilities will also be reduce to one half
of a mile or less.

Precautionary/preparedness actions...

A freezing fog advisory means a very light ice accumulation from
predominantly freezing fog is expected. If driving... slow down...
use your low beam headlights... and leave plenty of distance ahead
of you. Also... be alert for frost on bridge decks causing
slippery roads.



Goehring